createdAt,value
2022-09-19T00:01:31.307Z,22.3
2022-09-19T00:03:35.766Z,22.29
2022-09-19T00:05:40.045Z,22.29
2022-09-19T00:07:44.393Z,22.29
2022-09-19T00:09:48.675Z,22.27
2022-09-19T00:11:52.974Z,22.27
2022-09-19T00:13:57.296Z,22.26
2022-09-19T00:16:01.712Z,22.25
2022-09-19T00:18:06.341Z,22.24
2022-09-19T00:20:10.647Z,22.23
2022-09-19T00:22:14.953Z,22.22
2022-09-19T00:24:19.288Z,22.24
2022-09-19T00:26:23.629Z,22.23
2022-09-19T00:28:27.945Z,22.21
2022-09-19T00:30:32.283Z,22.19
2022-09-19T00:32:36.669Z,22.2
2022-09-19T00:34:40.961Z,22.18
2022-09-19T00:36:45.303Z,22.16
2022-09-19T00:38:49.622Z,22.15
2022-09-19T00:40:53.934Z,22.15
2022-09-19T00:42:58.325Z,22.13
2022-09-19T00:45:02.678Z,22.14
2022-09-19T00:47:07.111Z,22.15
2022-09-19T00:49:11.463Z,22.14
2022-09-19T00:51:15.800Z,22.13
2022-09-19T00:53:20.098Z,22.14
2022-09-19T00:55:24.430Z,22.13
2022-09-19T00:57:28.737Z,22.12
2022-09-19T00:59:33.075Z,22.1
2022-09-19T01:01:37.454Z,22.08
2022-09-19T01:03:41.865Z,22.08
2022-09-19T01:05:46.375Z,22.09
2022-09-19T01:07:50.704Z,22.09
2022-09-19T01:09:55.023Z,22.07
2022-09-19T01:11:59.346Z,22.07
2022-09-19T01:14:03.662Z,22.06
2022-09-19T01:16:08.162Z,22.07
2022-09-19T01:18:12.845Z,22.07
2022-09-19T01:20:17.183Z,22.06
2022-09-19T01:22:21.505Z,22.05
2022-09-19T01:24:25.908Z,22.04
2022-09-19T01:26:30.198Z,22.05
2022-09-19T01:28:34.535Z,22.03
2022-09-19T01:30:38.824Z,22.03
2022-09-19T01:32:43.125Z,22.01
2022-09-19T01:34:47.487Z,22.01
2022-09-19T01:36:51.740Z,21.99
2022-09-19T01:38:56.081Z,21.98
2022-09-19T01:41:00.481Z,21.98
2022-09-19T01:43:04.926Z,21.98
2022-09-19T01:45:09.276Z,21.97
2022-09-19T01:47:13.561Z,21.99
2022-09-19T01:49:17.860Z,21.96
2022-09-19T01:51:22.243Z,21.95
2022-09-19T01:53:26.543Z,21.95
2022-09-19T01:55:31.024Z,21.95
2022-09-19T01:57:35.381Z,21.94
2022-09-19T01:59:39.732Z,21.94
2022-09-19T02:01:44.139Z,21.94
2022-09-19T02:03:48.770Z,21.93
2022-09-19T02:05:53.128Z,21.94
2022-09-19T02:07:57.420Z,21.94
2022-09-19T02:10:01.725Z,21.94
2022-09-19T02:12:06.084Z,21.95
2022-09-19T02:14:10.364Z,21.95
2022-09-19T02:16:14.735Z,21.95
2022-09-19T02:18:19.295Z,21.94
2022-09-19T02:20:23.588Z,21.94
2022-09-19T02:22:27.939Z,21.94
2022-09-19T02:24:32.235Z,21.92
2022-09-19T02:26:36.562Z,21.9
2022-09-19T02:28:40.873Z,21.91
2022-09-19T02:30:45.198Z,21.91
2022-09-19T02:32:49.517Z,21.91
2022-09-19T02:34:53.816Z,21.89
2022-09-19T02:36:58.147Z,21.9
2022-09-19T02:39:02.474Z,21.9
2022-09-19T02:41:06.833Z,21.9
2022-09-19T02:43:11.175Z,21.9
2022-09-19T02:45:15.468Z,21.89
2022-09-19T02:47:19.799Z,21.89
2022-09-19T02:49:24.094Z,21.9
2022-09-19T02:51:28.488Z,21.89
2022-09-19T02:53:32.816Z,21.89
2022-09-19T02:55:37.101Z,21.88
2022-09-19T02:57:41.412Z,21.88
2022-09-19T02:59:45.698Z,21.88
2022-09-19T03:01:50.114Z,21.87
2022-09-19T03:03:54.651Z,21.86
2022-09-19T03:05:58.932Z,21.85
2022-09-19T03:08:03.246Z,21.83
2022-09-19T03:10:07.575Z,21.84
2022-09-19T03:12:11.869Z,21.84
2022-09-19T03:14:16.218Z,21.84
2022-09-19T03:16:20.580Z,21.85
2022-09-19T03:18:27.055Z,21.85
2022-09-19T03:20:31.415Z,21.86
2022-09-19T03:22:35.728Z,21.86
2022-09-19T03:24:40.035Z,21.84
2022-09-19T03:26:44.327Z,21.86
2022-09-19T03:28:48.655Z,21.84
2022-09-19T03:30:52.977Z,21.84
2022-09-19T03:32:57.310Z,21.84
2022-09-19T03:35:01.639Z,21.84
2022-09-19T03:39:10.281Z,21.82
2022-09-19T03:41:14.635Z,21.8
2022-09-19T03:43:18.980Z,21.8
2022-09-19T03:45:23.326Z,21.82
2022-09-19T03:47:27.651Z,21.82
2022-09-19T03:49:32.085Z,21.8
2022-09-19T03:51:36.388Z,21.81
2022-09-19T03:53:40.691Z,21.8
2022-09-19T03:55:45.047Z,21.81
2022-09-19T03:57:49.323Z,21.81
2022-09-19T03:59:53.632Z,21.8
2022-09-19T04:01:57.975Z,21.78
2022-09-19T04:04:02.509Z,21.79
2022-09-19T04:06:07.070Z,21.78
2022-09-19T04:08:11.484Z,21.77
2022-09-19T04:10:15.750Z,21.78
2022-09-19T04:12:20.073Z,21.76
2022-09-19T04:14:24.366Z,21.75
2022-09-19T04:16:28.812Z,21.76
2022-09-19T04:18:33.483Z,21.75
2022-09-19T04:20:37.946Z,21.75
2022-09-19T04:22:42.278Z,21.74
2022-09-19T04:24:46.585Z,21.73
2022-09-19T04:26:50.920Z,21.71
2022-09-19T04:28:55.322Z,21.71
2022-09-19T04:30:59.588Z,21.71
2022-09-19T04:33:03.925Z,21.72
2022-09-19T04:35:08.286Z,21.71
2022-09-19T04:37:12.596Z,21.7
2022-09-19T04:39:16.930Z,21.7
2022-09-19T04:41:21.253Z,21.68
2022-09-19T04:43:25.552Z,21.68
2022-09-19T04:45:29.970Z,21.67
2022-09-19T04:47:34.539Z,21.67
2022-09-19T04:49:38.906Z,21.65
2022-09-19T04:51:43.318Z,21.64
2022-09-19T04:53:47.645Z,21.62
2022-09-19T04:55:51.972Z,21.62
2022-09-19T04:57:56.282Z,21.63
2022-09-19T05:00:00.559Z,21.63
2022-09-19T05:02:04.854Z,21.63
2022-09-19T05:04:09.663Z,21.61
2022-09-19T05:06:14.001Z,21.59
2022-09-19T05:08:18.336Z,21.6
2022-09-19T05:10:22.606Z,21.61
2022-09-19T05:12:26.867Z,21.62
2022-09-19T05:14:31.187Z,21.61
2022-09-19T05:16:35.567Z,21.65
2022-09-19T05:18:40.234Z,21.71
2022-09-19T05:20:44.504Z,21.79
2022-09-19T05:22:48.843Z,21.86
2022-09-19T05:24:53.111Z,21.92
2022-09-19T05:26:57.414Z,21.96
2022-09-19T05:29:01.711Z,22.03
2022-09-19T05:31:06.078Z,22.11
2022-09-19T05:33:10.535Z,22.2
2022-09-19T05:35:14.835Z,22.26
2022-09-19T05:37:19.196Z,22.33
2022-09-19T05:39:23.544Z,22.4
2022-09-19T05:41:27.862Z,22.45
2022-09-19T05:43:32.182Z,22.48
2022-09-19T05:45:36.504Z,22.53
2022-09-19T05:47:40.765Z,22.57
2022-09-19T05:49:45.113Z,22.6
2022-09-19T05:51:49.432Z,22.62
2022-09-19T05:53:53.796Z,22.63
2022-09-19T05:55:58.287Z,22.64
2022-09-19T05:58:02.578Z,22.65
2022-09-19T06:00:06.925Z,22.66
2022-09-19T06:02:11.338Z,22.66
2022-09-19T06:04:15.909Z,22.67
2022-09-19T06:06:20.247Z,22.67
2022-09-19T06:08:24.560Z,22.69
2022-09-19T06:10:28.866Z,22.71
2022-09-19T06:12:33.160Z,22.72
2022-09-19T06:14:37.462Z,22.74
2022-09-19T06:16:41.787Z,22.77
2022-09-19T06:18:46.999Z,22.77
2022-09-19T06:20:51.393Z,22.79
2022-09-19T06:22:55.769Z,22.8
2022-09-19T06:25:00.077Z,22.81
2022-09-19T06:27:04.417Z,22.84
2022-09-19T06:29:08.977Z,22.86
2022-09-19T06:31:14.138Z,22.87
2022-09-19T06:33:18.688Z,22.91
2022-09-19T06:35:22.990Z,22.9
2022-09-19T06:37:27.382Z,22.9
2022-09-19T06:39:31.664Z,22.9
2022-09-19T06:41:35.964Z,22.92
2022-09-19T06:43:40.199Z,22.94
2022-09-19T06:45:44.443Z,22.95
2022-09-19T06:47:48.895Z,22.98
2022-09-19T06:49:53.179Z,23
2022-09-19T06:51:57.495Z,23
2022-09-19T06:54:01.810Z,22.98
2022-09-19T06:56:06.123Z,22.97
2022-09-19T06:58:10.458Z,22.97
2022-09-19T07:00:14.773Z,22.95
2022-09-19T07:02:19.196Z,22.94
2022-09-19T07:04:23.722Z,22.94
2022-09-19T07:06:28.017Z,22.92
2022-09-19T07:08:32.361Z,22.92
2022-09-19T07:10:36.661Z,22.93
2022-09-19T07:12:41.019Z,22.93
2022-09-19T07:14:45.356Z,22.92
2022-09-19T07:16:49.747Z,22.93
2022-09-19T07:18:54.099Z,22.93
2022-09-19T07:20:58.514Z,22.94
2022-09-19T07:23:02.821Z,22.93
2022-09-19T07:25:15.286Z,22.94
2022-09-19T07:27:22.473Z,22.93
2022-09-19T07:29:26.769Z,22.95
2022-09-19T07:31:31.121Z,22.95
2022-09-19T07:33:35.651Z,22.96
2022-09-19T07:35:39.972Z,22.96
2022-09-19T07:37:44.310Z,22.97
2022-09-19T07:40:01.994Z,22.97
2022-09-19T07:42:15.441Z,22.97
2022-09-19T07:44:20.002Z,22.97
2022-09-19T07:46:24.733Z,22.96
2022-09-19T07:48:29.282Z,22.96
2022-09-19T07:50:33.566Z,22.96
2022-09-19T07:52:37.933Z,22.97
2022-09-19T07:54:42.280Z,22.96
2022-09-19T07:56:46.608Z,22.96
2022-09-19T07:58:50.925Z,22.96
2022-09-19T08:00:55.423Z,22.97
2022-09-19T08:03:00.004Z,22.96
2022-09-19T08:05:04.285Z,22.96
2022-09-19T08:07:08.592Z,22.97
2022-09-19T08:09:12.916Z,22.98
2022-09-19T08:11:17.236Z,22.98
2022-09-19T08:13:21.557Z,22.98
2022-09-19T08:15:25.885Z,22.99
2022-09-19T08:17:30.263Z,23
2022-09-19T08:19:34.597Z,23
2022-09-19T08:21:38.893Z,23
2022-09-19T08:23:43.228Z,23.01
2022-09-19T08:25:47.899Z,23.01
2022-09-19T08:27:52.350Z,23.02
2022-09-19T08:29:56.679Z,23.01
2022-09-19T08:32:00.987Z,23.01
2022-09-19T08:34:05.653Z,23.01
2022-09-19T08:36:10.127Z,23.01
2022-09-19T08:38:14.434Z,23.02
2022-09-19T08:40:18.848Z,23.03
2022-09-19T08:42:23.614Z,23.04
2022-09-19T08:44:28.022Z,23.04
2022-09-19T08:46:32.324Z,23.05
2022-09-19T08:48:36.638Z,23.06
2022-09-19T08:50:40.955Z,23.07
2022-09-19T08:52:45.261Z,23.08
2022-09-19T08:54:49.553Z,23.08
2022-09-19T08:56:53.935Z,23.09
2022-09-19T08:58:58.248Z,23.09
2022-09-19T09:01:02.607Z,23.09
2022-09-19T09:03:12.230Z,23.1
2022-09-19T09:05:26.629Z,23.11
2022-09-19T09:07:31.045Z,23.13
2022-09-19T09:09:37.877Z,23.12
2022-09-19T09:11:42.849Z,23.12
2022-09-19T09:13:59.314Z,23.12
2022-09-19T09:16:04.672Z,23.12
2022-09-19T09:18:09.272Z,23.12
2022-09-19T09:20:13.619Z,23.12
2022-09-19T09:22:18.069Z,23.12
2022-09-19T09:24:33.380Z,23.12
2022-09-19T09:26:39.046Z,23.13
2022-09-19T09:28:43.361Z,23.12
2022-09-19T09:30:47.696Z,23.13
2022-09-19T09:32:52.027Z,23.11
2022-09-19T09:34:56.353Z,23.11
2022-09-19T09:37:00.623Z,23.1
2022-09-19T09:39:06.668Z,23.11
2022-09-19T09:41:11.807Z,23.12
2022-09-19T09:43:16.125Z,23.13
2022-09-19T09:45:20.479Z,23.13
2022-09-19T09:47:24.792Z,23.13
2022-09-19T09:49:30.460Z,23.12
2022-09-19T09:51:35.277Z,23.12
2022-09-19T09:53:39.826Z,23.12
2022-09-19T09:55:44.212Z,23.12
2022-09-19T09:57:53.282Z,23.12
2022-09-19T09:59:58.291Z,23.13
2022-09-19T10:02:02.732Z,23.12
2022-09-19T10:04:07.550Z,23.13
2022-09-19T10:06:11.911Z,23.13
2022-09-19T10:08:16.267Z,23.15
2022-09-19T10:10:20.599Z,23.16
2022-09-19T10:15:07.886Z,23.16
2022-09-19T10:17:12.606Z,23.16
2022-09-19T10:19:16.944Z,23.17
2022-09-19T10:21:21.313Z,23.17
2022-09-19T10:23:25.654Z,23.18
2022-09-19T10:25:30.059Z,23.18
2022-09-19T10:27:34.418Z,23.17
2022-09-19T10:29:38.721Z,23.18
2022-09-19T10:31:43.096Z,23.18
2022-09-19T10:33:47.755Z,23.19
2022-09-19T10:35:54.703Z,23.18
2022-09-19T10:38:00.671Z,23.18
2022-09-19T10:40:05.151Z,23.19
2022-09-19T10:42:09.783Z,23.19
2022-09-19T10:44:14.100Z,23.19
2022-09-19T10:46:18.429Z,23.19
2022-09-19T10:48:23.031Z,23.2
2022-09-19T10:50:27.378Z,23.21
2022-09-19T10:52:50.732Z,23.22
2022-09-19T10:54:56.308Z,23.21
2022-09-19T10:57:00.860Z,23.2
2022-09-19T10:59:05.308Z,23.18
2022-09-19T11:01:09.764Z,23.17
2022-09-19T11:03:14.537Z,23.17
2022-09-19T11:05:18.948Z,23.17
2022-09-19T11:07:24.247Z,23.17
2022-09-19T11:09:28.670Z,23.16
2022-09-19T11:11:33.065Z,23.16
2022-09-19T11:13:37.697Z,23.16
2022-09-19T11:15:42.173Z,23.17
2022-09-19T11:17:46.601Z,23.17
2022-09-19T11:19:50.983Z,23.17
2022-09-19T11:21:55.374Z,23.17
2022-09-19T11:23:59.684Z,23.17
2022-09-19T11:26:04.112Z,23.18
2022-09-19T11:28:08.588Z,23.18
2022-09-19T11:30:12.999Z,23.19
2022-09-19T11:35:10.648Z,23.18
2022-09-19T11:37:30.710Z,23.2
2022-09-19T11:39:47.067Z,23.21
2022-09-19T11:41:58.061Z,23.21
2022-09-19T11:44:02.535Z,23.21
2022-09-19T11:46:07.041Z,23.22
2022-09-19T11:48:11.560Z,23.22
2022-09-19T11:50:16.116Z,23.22
2022-09-19T11:52:24.275Z,23.27
2022-09-19T11:54:29.187Z,23.3
2022-09-19T11:56:33.648Z,23.32
2022-09-19T11:58:38.039Z,23.33
2022-09-19T12:00:42.360Z,23.35
2022-09-19T12:02:49.560Z,23.38
2022-09-19T12:04:54.515Z,23.39
2022-09-19T12:06:58.864Z,23.41
2022-09-19T12:09:03.325Z,23.42
2022-09-19T12:11:08.057Z,23.44
2022-09-19T12:13:12.550Z,23.46
2022-09-19T12:15:21.880Z,23.47
2022-09-19T12:17:26.355Z,23.48
2022-09-19T12:19:30.931Z,23.49
2022-09-19T12:21:35.272Z,23.46
2022-09-19T12:23:39.612Z,23.43
2022-09-19T12:25:44.000Z,23.43
2022-09-19T12:27:48.393Z,23.41
2022-09-19T12:29:52.867Z,23.4
2022-09-19T12:31:57.307Z,23.4
2022-09-19T12:34:02.754Z,23.4
2022-09-19T12:36:07.534Z,23.41
2022-09-19T12:38:12.172Z,23.41
2022-09-19T12:40:16.797Z,23.41
2022-09-19T12:42:21.609Z,23.45
2022-09-19T12:44:26.432Z,23.45
2022-09-19T12:46:31.405Z,23.45
2022-09-19T12:48:35.997Z,23.47
2022-09-19T12:50:40.577Z,23.48
2022-09-19T12:52:45.212Z,23.48
2022-09-19T12:54:49.711Z,23.5
2022-09-19T12:56:54.206Z,23.5
2022-09-19T12:58:58.881Z,23.52
2022-09-19T13:01:06.648Z,23.54
2022-09-19T13:03:13.807Z,23.55
2022-09-19T13:05:18.324Z,23.56
2022-09-19T13:07:22.839Z,23.56
2022-09-19T13:09:29.641Z,23.56
2022-09-19T13:11:38.628Z,23.57
2022-09-19T13:13:43.186Z,23.57
2022-09-19T13:15:47.861Z,23.58
2022-09-19T13:17:52.394Z,23.61
2022-09-19T13:19:56.881Z,23.58
2022-09-19T13:22:01.748Z,23.59
2022-09-19T13:24:06.457Z,23.6
2022-09-19T13:26:10.967Z,23.6
2022-09-19T13:28:15.583Z,23.61
2022-09-19T13:30:20.241Z,23.63
2022-09-19T13:32:24.741Z,23.64
2022-09-19T13:34:29.248Z,23.63
2022-09-19T13:36:33.768Z,23.65
2022-09-19T13:38:38.394Z,23.64
2022-09-19T13:40:43.059Z,23.64
2022-09-19T13:42:47.965Z,23.63
2022-09-19T13:44:52.715Z,23.61
2022-09-19T13:46:57.304Z,23.59
2022-09-19T13:49:02.152Z,23.6
2022-09-19T13:51:06.688Z,23.6
2022-09-19T13:53:11.289Z,23.63
2022-09-19T13:55:15.825Z,23.65
2022-09-19T13:57:20.440Z,23.67
2022-09-19T13:59:25.280Z,23.69
2022-09-19T14:01:29.999Z,23.7
2022-09-19T14:03:34.785Z,23.69
2022-09-19T14:05:39.302Z,23.71
2022-09-19T14:11:18.524Z,23.7
2022-09-19T14:13:24.745Z,23.7
2022-09-19T14:15:29.741Z,23.71
2022-09-19T14:17:34.388Z,23.69
2022-09-19T14:19:39.037Z,23.69
2022-09-19T14:21:43.663Z,23.71
2022-09-19T14:23:48.172Z,23.73
2022-09-19T14:25:52.622Z,23.75
2022-09-19T14:27:57.125Z,23.76
2022-09-19T14:30:01.762Z,23.77
2022-09-19T14:32:06.369Z,23.78
2022-09-19T14:34:11.461Z,23.83
2022-09-19T14:36:16.047Z,23.86
2022-09-19T14:38:20.602Z,23.9
2022-09-19T14:40:25.157Z,23.93
2022-09-19T14:42:30.172Z,23.97
2022-09-19T14:44:34.811Z,23.97
2022-09-19T14:46:39.777Z,23.98
2022-09-19T14:48:44.556Z,23.97
2022-09-19T14:50:49.200Z,23.97
2022-09-19T14:52:53.696Z,23.96
2022-09-19T14:54:58.212Z,23.98
2022-09-19T14:57:02.715Z,24.01
2022-09-19T14:59:07.227Z,24.06
2022-09-19T15:01:11.887Z,24.09
2022-09-19T15:03:16.646Z,24.07
2022-09-19T15:05:21.164Z,24.02
2022-09-19T15:07:25.756Z,23.98
2022-09-19T15:09:30.242Z,23.95
2022-09-19T15:11:34.809Z,23.93
2022-09-19T15:13:39.310Z,23.97
2022-09-19T15:15:43.796Z,24.01
2022-09-19T15:17:48.324Z,24.03
2022-09-19T15:19:52.877Z,24.06
2022-09-19T15:21:57.469Z,24.07
2022-09-19T15:24:02.008Z,24.09
2022-09-19T15:26:07.112Z,24.11
2022-09-19T15:28:11.669Z,24.11
2022-09-19T15:30:16.194Z,24.13
2022-09-19T15:32:20.752Z,24.12
2022-09-19T15:34:25.283Z,24.1
2022-09-19T15:36:29.776Z,24.1
2022-09-19T15:38:34.412Z,24.1
2022-09-19T15:40:39.304Z,24.12
2022-09-19T15:42:44.030Z,24.12
2022-09-19T15:44:48.570Z,24.13
2022-09-19T15:46:53.096Z,24.16
2022-09-19T15:48:57.911Z,24.19
2022-09-19T15:51:02.947Z,24.2
2022-09-19T15:53:07.429Z,24.21
2022-09-19T15:55:11.993Z,24.23
2022-09-19T15:57:16.509Z,24.26
2022-09-19T15:59:21.006Z,24.24
2022-09-19T16:01:25.570Z,24.25
2022-09-19T16:03:31.872Z,24.24
2022-09-19T16:05:36.444Z,24.26
2022-09-19T16:07:40.996Z,24.25
2022-09-19T16:09:45.578Z,24.24
2022-09-19T16:11:50.243Z,24.23
2022-09-19T16:13:54.738Z,24.27
2022-09-19T16:15:59.287Z,24.26
2022-09-19T16:18:04.074Z,24.26
2022-09-19T16:20:08.585Z,24.26
2022-09-19T16:22:13.670Z,24.28
2022-09-19T16:24:18.170Z,24.28
2022-09-19T16:26:23.817Z,24.27
2022-09-19T16:28:28.322Z,24.27
2022-09-19T16:30:32.800Z,24.26
2022-09-19T16:32:37.418Z,24.29
2022-09-19T16:34:41.916Z,24.28
2022-09-19T16:36:46.416Z,24.3
2022-09-19T16:38:50.936Z,24.3
2022-09-19T16:40:55.480Z,24.28
2022-09-19T16:43:00.083Z,24.27
2022-09-19T16:45:04.561Z,24.32
2022-09-19T16:47:09.107Z,24.32
2022-09-19T16:49:13.622Z,24.32
2022-09-19T16:51:18.247Z,24.31
2022-09-19T16:53:22.815Z,24.33
2022-09-19T16:55:27.357Z,24.33
2022-09-19T16:57:31.924Z,24.35
2022-09-19T16:59:36.404Z,24.35
2022-09-19T17:01:40.893Z,24.37
2022-09-19T17:03:49.714Z,24.38
2022-09-19T17:05:54.526Z,24.4
2022-09-19T17:08:01.778Z,24.42
2022-09-19T17:10:10.471Z,24.43
2022-09-19T17:12:15.040Z,24.45
2022-09-19T17:14:19.556Z,24.48
2022-09-19T17:16:24.169Z,24.48
2022-09-19T17:18:29.044Z,24.5
2022-09-19T17:20:33.518Z,24.51
2022-09-19T17:22:38.073Z,24.49
2022-09-19T17:24:42.569Z,24.42
2022-09-19T17:26:47.059Z,24.4
2022-09-19T17:28:51.552Z,24.38
2022-09-19T17:30:56.281Z,24.39
2022-09-19T17:33:04.098Z,24.47
2022-09-19T17:35:09.018Z,24.43
2022-09-19T17:37:13.498Z,24.45
2022-09-19T17:39:18.033Z,24.43
2022-09-19T17:41:22.580Z,24.39
2022-09-19T17:43:27.167Z,24.38
2022-09-19T17:45:31.774Z,24.37
2022-09-19T17:47:44.349Z,24.36
2022-09-19T17:49:49.205Z,24.35
2022-09-19T17:51:53.973Z,24.35
2022-09-19T17:53:58.760Z,24.34
2022-09-19T17:56:03.270Z,24.33
2022-09-19T17:58:07.660Z,24.32
2022-09-19T18:00:12.098Z,24.32
2022-09-19T18:02:16.543Z,24.34
2022-09-19T18:04:21.238Z,24.36
2022-09-19T18:06:25.607Z,24.39
2022-09-19T18:08:29.885Z,24.42
2022-09-19T18:10:34.495Z,24.41
2022-09-19T18:12:38.996Z,24.42
2022-09-19T18:14:43.722Z,24.41
2022-09-19T18:16:48.506Z,24.41
2022-09-19T18:18:53.643Z,24.42
2022-09-19T18:20:58.211Z,24.43
2022-09-19T18:23:02.729Z,24.42
2022-09-19T18:25:07.184Z,24.4
2022-09-19T18:27:11.575Z,24.41
2022-09-19T18:29:16.006Z,24.41
2022-09-19T18:31:20.703Z,24.41
2022-09-19T18:33:25.459Z,24.42
2022-09-19T18:35:30.010Z,24.39
2022-09-19T18:37:34.552Z,24.35
2022-09-19T18:39:38.933Z,24.34
2022-09-19T18:41:43.436Z,24.35
2022-09-19T18:43:47.918Z,24.37
2022-09-19T18:45:52.422Z,24.45
2022-09-19T18:47:56.949Z,24.47
2022-09-19T18:50:01.361Z,24.48
2022-09-19T18:52:05.777Z,24.5
2022-09-19T18:54:10.212Z,24.51
2022-09-19T18:56:14.640Z,24.51
2022-09-19T18:58:19.132Z,24.51
2022-09-19T19:00:23.476Z,24.52
2022-09-19T19:02:28.069Z,24.54
2022-09-19T19:04:32.970Z,24.56
2022-09-19T19:06:37.541Z,24.58
2022-09-19T19:08:41.979Z,24.57
2022-09-19T19:10:46.672Z,24.51
2022-09-19T19:12:52.999Z,24.22
2022-09-19T19:14:57.664Z,23.83
2022-09-19T19:17:02.180Z,23.52
2022-09-19T19:19:07.004Z,23.19
2022-09-19T19:21:11.691Z,22.92
2022-09-19T19:23:16.102Z,22.68
2022-09-19T19:25:20.507Z,22.52
2022-09-19T19:27:24.881Z,22.49
2022-09-19T19:29:29.265Z,22.56
2022-09-19T19:31:33.658Z,22.65
2022-09-19T19:33:38.430Z,22.75
2022-09-19T19:35:42.875Z,22.8
2022-09-19T19:37:47.250Z,22.82
2022-09-19T19:39:51.625Z,22.87
2022-09-19T19:41:56.068Z,22.95
2022-09-19T19:44:00.561Z,23.03
2022-09-19T19:46:08.436Z,23.08
2022-09-19T19:48:16.581Z,23.13
2022-09-19T19:50:20.956Z,23.18
2022-09-19T19:52:25.326Z,23.21
2022-09-19T19:54:29.663Z,23.22
2022-09-19T19:56:33.985Z,23.27
2022-09-19T19:58:38.366Z,23.29
2022-09-19T20:00:42.822Z,23.31
2022-09-19T20:02:47.370Z,23.3
2022-09-19T20:04:51.737Z,23.3
2022-09-19T20:06:56.105Z,23.34
2022-09-19T20:09:01.551Z,23.33
2022-09-19T20:11:05.994Z,23.31
2022-09-19T20:13:10.434Z,23.32
2022-09-19T20:15:14.886Z,23.32
2022-09-19T20:17:19.322Z,23.31
2022-09-19T20:19:23.678Z,23.28
2022-09-19T20:21:28.098Z,23.25
2022-09-19T20:23:32.643Z,23.24
2022-09-19T20:25:37.203Z,23.23
2022-09-19T20:27:41.659Z,23.22
2022-09-19T20:29:46.035Z,23.23
2022-09-19T20:31:50.539Z,23.21
2022-09-19T20:33:55.389Z,23.2
2022-09-19T20:36:03.625Z,23.16
2022-09-19T20:38:08.783Z,23.12
2022-09-19T20:40:13.208Z,23.09
2022-09-19T20:42:18.314Z,23.06
2022-09-19T20:44:22.860Z,23.04
2022-09-19T20:46:27.249Z,23.01
2022-09-19T20:48:31.617Z,22.97
2022-09-19T20:50:36.086Z,22.95
2022-09-19T20:52:40.487Z,22.93
2022-09-19T20:54:44.989Z,22.9
2022-09-19T20:56:49.491Z,22.87
2022-09-19T20:58:54.360Z,22.85
2022-09-19T21:00:58.854Z,22.82
2022-09-19T21:03:03.481Z,22.79
2022-09-19T21:05:07.902Z,22.77
2022-09-19T21:07:12.320Z,22.74
2022-09-19T21:09:16.734Z,22.72
2022-09-19T21:11:21.121Z,22.7
2022-09-19T21:13:25.571Z,22.68
2022-09-19T21:15:29.946Z,22.66
2022-09-19T21:17:34.323Z,22.64
2022-09-19T21:19:38.742Z,22.62
2022-09-19T21:21:43.153Z,22.59
2022-09-19T21:23:47.609Z,22.55
2022-09-19T21:25:52.013Z,22.52
2022-09-19T21:27:56.438Z,22.51
2022-09-19T21:30:00.843Z,22.49
2022-09-19T21:32:05.401Z,22.47
2022-09-19T21:34:10.036Z,22.45
2022-09-19T21:36:14.464Z,22.45
2022-09-19T21:38:18.838Z,22.43
2022-09-19T21:40:23.244Z,22.43
2022-09-19T21:42:27.816Z,22.41
2022-09-19T21:44:32.166Z,22.39
2022-09-19T21:46:36.585Z,22.37
2022-09-19T21:48:41.008Z,22.36
2022-09-19T21:50:45.426Z,22.36
2022-09-19T21:52:49.789Z,22.34
2022-09-19T21:54:54.183Z,22.33
2022-09-19T21:57:05.434Z,22.3
2022-09-19T21:59:09.806Z,22.28
2022-09-19T22:01:14.277Z,22.28
2022-09-19T22:03:19.162Z,22.28
2022-09-19T22:05:23.564Z,22.28
2022-09-19T22:07:27.972Z,22.25
2022-09-19T22:09:32.371Z,22.24
2022-09-19T22:11:36.800Z,22.23
2022-09-19T22:13:41.193Z,22.21
2022-09-19T22:15:45.564Z,22.2
2022-09-19T22:17:49.987Z,22.2
2022-09-19T22:19:54.356Z,22.18
2022-09-19T22:21:58.658Z,22.18
2022-09-19T22:24:03.108Z,22.16
2022-09-19T22:26:07.503Z,22.15
2022-09-19T22:28:11.908Z,22.13
2022-09-19T22:30:16.305Z,22.13
2022-09-19T22:32:20.674Z,22.12
2022-09-19T22:34:25.082Z,22.12
2022-09-19T22:36:29.492Z,22.11
2022-09-19T22:38:34.495Z,22.11
2022-09-19T22:40:38.987Z,22.09
2022-09-19T22:42:43.666Z,22.07
2022-09-19T22:44:48.041Z,22.07
2022-09-19T22:46:52.441Z,22.04
2022-09-19T22:48:56.868Z,22.04
2022-09-19T22:51:01.214Z,22.05
2022-09-19T22:53:05.615Z,22.05
2022-09-19T22:55:09.981Z,22.02
2022-09-19T22:57:14.361Z,22.03
2022-09-19T22:59:18.687Z,22.02
2022-09-19T23:01:23.076Z,22.01
2022-09-19T23:03:27.513Z,21.99
2022-09-19T23:05:32.260Z,21.98
2022-09-19T23:07:36.790Z,21.98
2022-09-19T23:09:41.144Z,21.96
2022-09-19T23:11:45.574Z,21.94
2022-09-19T23:13:50.020Z,21.93
2022-09-19T23:15:54.574Z,21.95
2022-09-19T23:17:59.101Z,21.94
2022-09-19T23:20:03.503Z,21.92
2022-09-19T23:22:08.098Z,21.9
2022-09-19T23:24:12.481Z,21.89
2022-09-19T23:26:16.870Z,21.86
2022-09-19T23:28:21.277Z,21.85
2022-09-19T23:30:25.720Z,21.82
2022-09-19T23:32:30.129Z,21.82
2022-09-19T23:34:34.552Z,21.8
2022-09-19T23:36:38.950Z,21.8
2022-09-19T23:38:43.377Z,21.8
2022-09-19T23:40:47.896Z,21.79
2022-09-19T23:42:52.309Z,21.78
2022-09-19T23:44:56.681Z,21.77
2022-09-19T23:47:01.074Z,21.75
2022-09-19T23:49:05.493Z,21.74
2022-09-19T23:51:10.533Z,21.74
2022-09-19T23:53:14.923Z,21.74
2022-09-19T23:55:19.309Z,21.74
2022-09-19T23:57:23.750Z,21.73
2022-09-19T23:59:28.144Z,21.73
